Flight Track Log - Related Links

Times and Time Zones

All times are in EDT time to prevent confusion due to time zone crossing. See the N6224J flight status page for this flight to view local times or setup timezone preferences in your user account.

Time Position Orientation Groundspeed Altitude Reporting Facility
EDT Latitude Longitude Course Direction KTS MPH feet Rate Location/Type
Sun 03:14:55 PM 31.0144 -87.0033 40° Northeast 111 128 5,700  Level Jacksonville Center
Sun 03:15:55 PM 31.0381 -86.9803 40° Northeast 111 128 5,700  Level Jacksonville Center
Sun 03:16:55 PM 31.0617 -86.9594 37° Northeast 111 128 5,700  Level Jacksonville Center
Sun 03:17:55 PM 31.0853 -86.9386 37° Northeast 106 122 5,700  Level Jacksonville Center
Sun 03:18:55 PM 31.1069 -86.9128 46° Northeast 106 122 5,700  Level Jacksonville Center
Sun 03:19:55 PM 31.1306 -86.8919 37° Northeast 101 116 5,700 50 Level Jacksonville Center
Sun 03:20:55 PM 31.1542 -86.8736 34° Northeast 101 116 5,800 50 Climbing Jacksonville Center
Sun 03:21:55 PM 31.1758 -86.8478 46° Northeast 101 116 5,800  Level Jacksonville Center
Sun 03:22:55 PM 31.1994 -86.8269 37° Northeast 101 116 5,800 -50 Level Jacksonville Center
Sun 03:23:55 PM 31.2231 -86.8086 34° Northeast 101 116 5,700 -50 Descending Jacksonville Center
Sun 03:24:55 PM 31.2486 -86.7878 35° Northeast 106 122 5,700  Level Jacksonville Center
Sun 03:25:55 PM 31.2703 -86.7619 46° Northeast 106 122 5,700  Level Jacksonville Center
Sun 03:26:28 PM 31.2811 -86.7478 48° Northeast 110 127 5,700  Level Jacksonville Center
Sun 03:26:55 PM 31.2961 -86.7411 21° North 106 122 5,700  Level Jacksonville Center
Sun 03:27:40 PM 31.3111 -86.7222 47° Northeast 109 125 5,700  Level Jacksonville Center
Sun 03:27:55 PM 31.3197 -86.7203 11° North 106 122 5,700  Level Jacksonville Center
Sun 03:28:41 PM 31.3369 -86.7014 43° Northeast 111 128 5,700  Level Jacksonville Center
Sun 03:29:42 PM 31.3606 -86.6806 37° Northeast 109 125 5,700  Level Jacksonville Center
Sun 03:30:42 PM 31.3864 -86.6547 40° Northeast 109 125 5,700 50 Level Jacksonville Center
Sun 03:31:43 PM 31.4078 -86.6336 40° Northeast 111 128 5,800 45 Climbing Jacksonville Center
Sun 03:32:55 PM 31.4397 -86.6083 34° Northeast 106 122 5,800 -47 Level Jacksonville Center
Sun 03:33:50 PM 31.4614 -86.5847 43° Northeast 111 128 5,700 -52 Descending Jacksonville Center
Sun 03:34:51 PM 31.4850 -86.5614 40° Northeast 113 130 5,700  Level Jacksonville Center
Sun 03:34:55 PM 31.4850 -86.5614 40° Northeast 106 122 5,700  Level Jacksonville Center
Sun 03:35:55 PM 31.5086 -86.5378 40° Northeast 106 122 5,700  Level Jacksonville Center
Sun 03:36:55 PM 31.5344 -86.5169 35° Northeast 106 122 5,700  Level Jacksonville Center
Sun 03:37:53 PM 31.5558 -86.4911 46° Northeast 110 127 5,700  Level Jacksonville Center
Sun 03:39:00 PM 31.5817 -86.4675 38° Northeast 110 127 5,700  Level Jacksonville Center
Sun 03:39:54 PM 31.6031 -86.4464 40° Northeast 110 127 5,700  Level Jacksonville Center
Sun 03:41:01 PM 31.6289 -86.4181 43° Northeast 116 133 5,700  Level Jacksonville Center
Sun 03:42:01 PM 31.6528 -86.3922 43° Northeast 112 129 5,700  Level Jacksonville Center
Sun 03:43:02 PM 31.6742 -86.3711 40° Northeast 110 127 5,700  Level Jacksonville Center
Sun 03:44:03 PM 31.7000 -86.3428 43° Northeast 111 128 5,700  Level Jacksonville Center
Sun 03:44:57 PM 31.7214 -86.3264 33° Northeast 111 128 5,700  Level Jacksonville Center
Sun 03:46:00 PM 31.7583 -86.2845 44° Northeast  Level FlightAware Approximate
Sun 03:53:00 PM 32.0082 -86.0087 40° Northeast  Level FlightAware Approximate
Sun 03:54:00 PM 32.0456 -85.9715 40° Northeast  Level FlightAware Approximate
Sun 03:55:00 PM 32.0829 -85.9342 40° Northeast  Level FlightAware Approximate
Sun 03:56:00 PM 32.1201 -85.8970 40° Northeast  Level FlightAware Approximate
Sun 03:57:00 PM 32.1574 -85.8597 40° Northeast  Level FlightAware Approximate
Sun 03:58:00 PM 32.1947 -85.8224 40° Northeast  Level FlightAware Approximate
Sun 03:59:00 PM 32.2319 -85.7850 40° Northeast  Level FlightAware Approximate
Sun 04:00:00 PM 32.2692 -85.7476 40° Northeast  Level FlightAware Approximate
Sun 04:01:00 PM 32.3068 -85.7107 37° Northeast  Level FlightAware Approximate
Sun 04:02:00 PM 32.3458 -85.6760 37° Northeast  Level FlightAware Approximate
Sun 04:03:00 PM 32.3849 -85.6413 37° Northeast  Level FlightAware Approximate
Sun 04:04:00 PM 32.4240 -85.6065 37° Northeast  Level FlightAware Approximate
Sun 04:05:00 PM 32.4625 -85.5709 40° Northeast  Level FlightAware Approximate

Login

Don't have an account? Register now (free) for customized features, flight alerts, and more!